Terminal Aerodrome Forecast
Issued by NWS Sterling, VA

Current Version | Previous Version | Graphics & Text | Print | Product List | Glossary On
Versions: 1 2 3 4 5 6 7 8 9 10 11 12 13 14 15 16 17 18 19 20 21 22 23
276
FTUS41 KLWX 172030 AAA
TAFIAD
TAF AMD
KIAD 172030Z 1721/1824 14004KT P6SM BKN120
     FM180400 VRB03KT P6SM BKN060
     FM181200 VRB03KT P6SM SCT060 BKN250
     FM181900 22005KT P6SM BKN050=

USA.gov is the U.S. government's official web portal to all federal, state and local government web resources and services.